createdAt,value
2018-10-06T00:01:40.406Z,99.90
2018-10-06T00:04:08.437Z,99.90
2018-10-06T00:06:36.449Z,99.90
2018-10-06T00:09:05.982Z,99.90
2018-10-06T00:11:34.126Z,99.90
2018-10-06T00:14:02.222Z,99.90
2018-10-06T00:16:30.319Z,99.90
2018-10-06T00:18:58.326Z,99.90
2018-10-06T00:21:26.357Z,99.90
2018-10-06T00:23:54.402Z,99.90
2018-10-06T00:26:22.407Z,99.90
2018-10-06T00:28:50.490Z,99.90
2018-10-06T00:31:18.686Z,99.90
2018-10-06T00:33:46.794Z,99.90
2018-10-06T00:36:14.839Z,99.90
2018-10-06T00:38:43.185Z,99.90
2018-10-06T00:41:11.283Z,99.90
2018-10-06T00:43:39.372Z,99.90
2018-10-06T00:46:07.414Z,99.90
2018-10-06T00:48:35.470Z,99.90
2018-10-06T00:51:03.490Z,99.90
2018-10-06T00:53:31.562Z,99.90
2018-10-06T00:55:59.658Z,99.90
2018-10-06T00:58:27.673Z,99.90
2018-10-06T01:00:55.752Z,99.90
2018-10-06T01:03:23.805Z,99.90
2018-10-06T01:05:52.141Z,99.90
2018-10-06T01:08:20.251Z,99.90
2018-10-06T01:10:48.250Z,99.90
2018-10-06T01:13:16.434Z,99.90
2018-10-06T01:15:44.534Z,99.90
2018-10-06T01:18:12.637Z,99.90
2018-10-06T01:20:40.925Z,99.90
2018-10-06T01:23:08.922Z,99.90
2018-10-06T01:25:37.000Z,99.90
2018-10-06T01:28:05.041Z,99.90
2018-10-06T01:30:33.030Z,99.90
2018-10-06T01:33:01.064Z,99.90
2018-10-06T01:35:29.066Z,99.90
2018-10-06T01:37:57.410Z,99.90
2018-10-06T01:40:25.450Z,99.90
2018-10-06T01:42:53.471Z,99.90
2018-10-06T01:45:21.799Z,99.90
2018-10-06T01:47:49.872Z,99.90
2018-10-06T01:50:17.897Z,99.90
2018-10-06T01:52:45.939Z,99.90
2018-10-06T01:55:14.085Z,99.90
2018-10-06T01:57:42.186Z,99.90
2018-10-06T02:00:10.189Z,99.90
2018-10-06T02:02:38.231Z,99.90
2018-10-06T02:05:06.267Z,99.90
2018-10-06T02:07:34.311Z,99.90
2018-10-06T02:10:02.346Z,99.90
2018-10-06T02:12:30.347Z,99.90
2018-10-06T02:14:58.353Z,99.90
2018-10-06T02:17:26.378Z,99.90
2018-10-06T02:19:54.413Z,99.90
2018-10-06T02:22:22.445Z,99.90
2018-10-06T02:24:50.844Z,99.90
2018-10-06T02:27:18.837Z,99.90
2018-10-06T02:29:46.833Z,99.90
2018-10-06T02:32:15.231Z,99.90
2018-10-06T02:34:43.858Z,99.90
2018-10-06T02:37:11.927Z,99.90
2018-10-06T02:39:39.963Z,99.90
2018-10-06T02:42:08.042Z,99.90
2018-10-06T02:44:36.038Z,99.90
2018-10-06T02:47:04.427Z,99.90
2018-10-06T02:49:32.418Z,99.90
2018-10-06T02:52:00.518Z,99.90
2018-10-06T02:54:28.601Z,99.90
2018-10-06T02:56:56.604Z,99.90
2018-10-06T02:59:24.705Z,99.90
2018-10-06T03:01:53.018Z,99.90
2018-10-06T03:04:21.101Z,99.90
2018-10-06T03:06:49.206Z,99.90
2018-10-06T03:09:17.298Z,99.90
2018-10-06T03:11:45.325Z,99.90
2018-10-06T03:14:13.392Z,99.90
2018-10-06T03:16:41.482Z,99.90
2018-10-06T03:19:09.587Z,99.90
2018-10-06T03:21:37.986Z,99.90
2018-10-06T03:24:06.018Z,99.90
2018-10-06T03:26:34.009Z,99.90
2018-10-06T03:29:02.082Z,99.90
2018-10-06T03:31:30.087Z,99.90
2018-10-06T03:33:58.474Z,99.90
2018-10-06T03:36:26.490Z,99.90
2018-10-06T03:38:54.771Z,99.90
2018-10-06T03:41:22.856Z,99.90
2018-10-06T03:43:50.955Z,99.90
2018-10-06T03:46:19.058Z,99.90
2018-10-06T03:48:47.056Z,99.90
2018-10-06T03:51:15.087Z,99.90
2018-10-06T03:53:43.086Z,99.90
2018-10-06T03:56:11.448Z,99.90
2018-10-06T03:58:39.455Z,99.90
2018-10-06T04:01:07.453Z,99.90
2018-10-06T04:03:35.504Z,99.90
2018-10-06T04:06:03.541Z,99.90
2018-10-06T04:08:31.570Z,99.90
2018-10-06T04:10:59.609Z,99.90
2018-10-06T04:13:27.950Z,99.90
2018-10-06T04:15:56.021Z,99.90
2018-10-06T04:18:24.098Z,99.90
2018-10-06T04:20:52.126Z,99.90
2018-10-06T04:23:20.207Z,99.90
2018-10-06T04:25:48.410Z,99.90
2018-10-06T04:28:16.474Z,99.90
2018-10-06T04:30:44.805Z,99.90
2018-10-06T04:33:12.806Z,99.90
2018-10-06T04:35:40.805Z,99.90
2018-10-06T04:38:08.842Z,99.90
2018-10-06T04:40:36.983Z,99.90
2018-10-06T04:43:05.082Z,99.90
2018-10-06T04:45:33.111Z,99.90
2018-10-06T04:48:01.478Z,99.90
2018-10-06T04:50:29.486Z,99.90
2018-10-06T04:52:57.494Z,99.90
2018-10-06T04:55:25.527Z,99.90
2018-10-06T04:57:53.870Z,99.90
2018-10-06T05:00:21.874Z,99.90
2018-10-06T05:02:49.867Z,99.90
2018-10-06T05:05:18.261Z,99.90
2018-10-06T05:07:46.330Z,99.90
2018-10-06T05:10:14.362Z,99.90
2018-10-06T05:12:42.386Z,99.90
2018-10-06T05:15:10.385Z,99.90
2018-10-06T05:17:38.642Z,99.90
2018-10-06T05:20:06.842Z,99.90
2018-10-06T05:22:34.938Z,99.90
2018-10-06T05:25:02.978Z,99.90
2018-10-06T05:27:31.007Z,99.90
2018-10-06T05:29:59.130Z,99.90
2018-10-06T05:32:27.430Z,99.90
2018-10-06T05:34:55.545Z,99.90
2018-10-06T05:37:23.627Z,99.90
2018-10-06T05:39:51.715Z,99.90
2018-10-06T05:42:19.763Z,99.90
2018-10-06T05:44:47.854Z,99.90
2018-10-06T05:47:15.918Z,99.90
2018-10-06T05:49:43.914Z,99.90
2018-10-06T05:52:11.977Z,99.90
2018-10-06T05:54:40.010Z,99.90
2018-10-06T05:57:08.093Z,99.90
2018-10-06T05:59:36.173Z,99.90
2018-10-06T06:02:04.189Z,99.90
2018-10-06T06:04:32.218Z,99.90
2018-10-06T06:07:00.274Z,99.90
2018-10-06T06:09:28.581Z,99.90
2018-10-06T06:11:56.594Z,99.90
2018-10-06T06:14:24.598Z,99.90
2018-10-06T06:16:52.670Z,99.90
2018-10-06T06:19:20.761Z,99.90
2018-10-06T06:21:48.810Z,99.90
2018-10-06T06:24:16.809Z,99.90
2018-10-06T06:26:44.854Z,99.90
2018-10-06T06:29:12.870Z,99.90
2018-10-06T06:31:40.935Z,99.90
2018-10-06T06:34:08.943Z,99.90
2018-10-06T06:36:36.954Z,99.90
2018-10-06T06:39:05.782Z,99.90
2018-10-06T06:41:33.830Z,99.90
2018-10-06T06:44:02.077Z,99.90
2018-10-06T06:46:30.077Z,99.90
2018-10-06T06:48:58.134Z,99.90
2018-10-06T06:51:26.178Z,99.90
2018-10-06T06:53:54.222Z,99.90
2018-10-06T06:56:22.231Z,99.90
2018-10-06T06:58:50.266Z,99.90
2018-10-06T07:01:18.265Z,99.90
2018-10-06T07:03:46.306Z,99.90
2018-10-06T07:06:14.350Z,99.90
2018-10-06T07:08:43.113Z,99.90
2018-10-06T07:11:11.192Z,99.90
2018-10-06T07:13:39.406Z,99.90
2018-10-06T07:16:08.047Z,99.90
2018-10-06T07:18:36.685Z,99.90
2018-10-06T07:21:04.854Z,99.90
2018-10-06T07:23:33.114Z,99.90
2018-10-06T07:26:01.154Z,99.90
2018-10-06T07:28:29.176Z,99.90
2018-10-06T07:30:57.230Z,99.90
2018-10-06T07:33:25.566Z,99.90
2018-10-06T07:35:53.583Z,99.90
2018-10-06T07:38:21.633Z,99.90
2018-10-06T07:40:49.721Z,99.90
2018-10-06T07:43:17.853Z,99.90
2018-10-06T07:45:46.336Z,99.90
2018-10-06T07:48:14.401Z,99.90
2018-10-06T07:50:42.703Z,99.90
2018-10-06T07:53:10.858Z,99.90
2018-10-06T07:55:38.726Z,99.90
2018-10-06T07:58:06.749Z,99.90
2018-10-06T08:00:34.835Z,99.90
2018-10-06T08:03:02.887Z,99.90
2018-10-06T08:05:30.925Z,99.90
2018-10-06T08:07:58.965Z,99.90
2018-10-06T08:10:27.057Z,99.90
2018-10-06T08:12:55.162Z,99.90
2018-10-06T08:15:23.546Z,99.90
2018-10-06T08:17:51.618Z,99.90
2018-10-06T08:20:19.724Z,99.90
2018-10-06T08:22:48.173Z,99.90
2018-10-06T08:25:16.270Z,99.90
2018-10-06T08:27:44.271Z,99.90
2018-10-06T08:30:12.664Z,99.90
2018-10-06T08:32:40.658Z,99.90
2018-10-06T08:35:08.753Z,99.90
2018-10-06T08:37:36.787Z,99.90
2018-10-06T08:40:04.806Z,99.90
2018-10-06T08:42:32.867Z,99.90
2018-10-06T08:45:01.240Z,99.90
2018-10-06T08:47:29.235Z,99.90
2018-10-06T08:49:57.372Z,99.90
2018-10-06T08:52:25.737Z,99.90
2018-10-06T08:54:53.834Z,99.90
2018-10-06T08:57:21.836Z,99.90
2018-10-06T08:59:49.930Z,99.90
2018-10-06T09:02:17.987Z,99.90
2018-10-06T09:04:46.032Z,99.90
2018-10-06T09:07:14.117Z,99.90
2018-10-06T09:09:42.662Z,99.90
2018-10-06T09:12:10.670Z,99.90
2018-10-06T09:14:38.662Z,99.90
2018-10-06T09:17:07.219Z,99.90
2018-10-06T09:19:35.246Z,99.90
2018-10-06T09:22:03.306Z,99.90
2018-10-06T09:24:31.303Z,99.90
2018-10-06T09:26:59.362Z,99.90
2018-10-06T09:29:27.498Z,99.90
2018-10-06T09:31:55.489Z,99.90
2018-10-06T09:34:23.494Z,99.90
2018-10-06T09:36:51.690Z,99.90
2018-10-06T09:39:19.771Z,99.90
2018-10-06T09:41:47.894Z,99.90
2018-10-06T09:44:15.999Z,99.90
2018-10-06T09:46:44.049Z,99.90
2018-10-06T09:49:12.083Z,99.90
2018-10-06T09:51:40.275Z,99.90
2018-10-06T09:54:08.564Z,99.90
2018-10-06T09:56:36.674Z,99.90
2018-10-06T09:59:04.761Z,99.90
2018-10-06T10:01:38.303Z,99.90
2018-10-06T10:04:11.428Z,99.90
2018-10-06T10:06:40.009Z,99.90
2018-10-06T10:09:09.708Z,99.90
2018-10-06T10:11:37.946Z,99.90
2018-10-06T10:14:06.147Z,99.90
2018-10-06T10:16:34.346Z,99.90
2018-10-06T10:19:02.581Z,99.90
2018-10-06T10:21:30.602Z,99.90
2018-10-06T10:23:59.001Z,99.90
2018-10-06T10:26:27.842Z,99.90
2018-10-06T10:28:56.299Z,99.90
2018-10-06T10:31:24.318Z,99.90
2018-10-06T10:33:52.589Z,99.90
2018-10-06T10:36:20.632Z,99.90
2018-10-06T10:38:48.634Z,99.60
2018-10-06T10:41:16.745Z,99.80
2018-10-06T10:43:44.787Z,99.90
2018-10-06T10:46:12.779Z,99.90
2018-10-06T10:48:40.829Z,99.90
2018-10-06T10:51:08.868Z,99.90
2018-10-06T10:53:36.893Z,99.90
2018-10-06T10:56:05.038Z,99.90
2018-10-06T10:58:33.038Z,99.90
2018-10-06T11:01:01.246Z,99.80
2018-10-06T11:03:29.209Z,99.40
2018-10-06T11:05:57.219Z,99.60
2018-10-06T11:08:25.314Z,99.70
2018-10-06T11:10:53.397Z,99.80
2018-10-06T11:13:21.397Z,99.90
2018-10-06T11:15:49.425Z,99.60
2018-10-06T11:18:17.486Z,99.50
2018-10-06T11:20:45.798Z,99.00
2018-10-06T11:23:13.793Z,99.60
2018-10-06T11:25:41.866Z,99.50
2018-10-06T11:28:10.183Z,99.00
2018-10-06T11:30:38.282Z,99.20
2018-10-06T11:33:06.322Z,99.40
2018-10-06T11:35:34.423Z,99.20
2018-10-06T11:38:02.431Z,99.20
2018-10-06T11:40:30.467Z,98.80
2018-10-06T11:42:58.557Z,99.00
2018-10-06T11:45:26.857Z,99.10
2018-10-06T11:47:54.854Z,98.80
2018-10-06T11:50:22.933Z,98.40
2018-10-06T11:52:50.953Z,98.40
2018-10-06T11:55:18.951Z,98.50
2018-10-06T11:57:47.038Z,99.00
2018-10-06T12:00:15.233Z,98.90
2018-10-06T12:02:43.492Z,98.30
2018-10-06T12:05:11.547Z,98.40
2018-10-06T12:07:39.814Z,97.90
2018-10-06T12:10:08.834Z,97.80
2018-10-06T12:12:36.830Z,97.60
2018-10-06T12:15:05.050Z,97.80
2018-10-06T12:17:33.143Z,97.30
2018-10-06T12:20:01.137Z,97.50
2018-10-06T12:22:29.538Z,97.50
2018-10-06T12:24:57.538Z,96.90
2018-10-06T12:27:25.535Z,97.10
2018-10-06T12:29:53.575Z,96.70
2018-10-06T12:32:21.626Z,96.40
2018-10-06T12:34:49.724Z,96.50
2018-10-06T12:37:17.638Z,96.50
2018-10-06T12:39:45.662Z,96.40
2018-10-06T12:42:13.743Z,95.80
2018-10-06T12:44:41.693Z,96.50
2018-10-06T12:47:09.798Z,96.70
2018-10-06T12:49:37.886Z,97.10
2018-10-06T12:52:06.317Z,96.30
2018-10-06T12:54:34.392Z,95.80
2018-10-06T12:57:02.430Z,96.00
2018-10-06T12:59:30.426Z,95.90
2018-10-06T13:01:58.474Z,96.30
2018-10-06T13:04:26.574Z,95.80
2018-10-06T13:06:54.669Z,95.90
2018-10-06T13:09:22.765Z,96.30
2018-10-06T13:11:50.847Z,96.10
2018-10-06T13:14:18.868Z,95.80
2018-10-06T13:16:47.077Z,96.30
2018-10-06T13:19:15.082Z,95.90
2018-10-06T13:21:43.149Z,96.20
2018-10-06T13:24:12.257Z,96.50
2018-10-06T13:29:03.931Z,96.60
2018-10-06T13:31:31.962Z,96.90
2018-10-06T13:34:00.150Z,96.40
2018-10-06T13:36:28.254Z,97.10
2018-10-06T13:38:56.291Z,96.50
2018-10-06T13:41:24.441Z,97.00
2018-10-06T13:43:52.542Z,96.90
2018-10-06T13:46:20.706Z,97.20
2018-10-06T13:48:48.695Z,97.50
2018-10-06T13:51:16.834Z,97.50
2018-10-06T13:53:44.869Z,97.10
2018-10-06T13:56:12.901Z,97.10
2018-10-06T13:58:41.104Z,97.00
2018-10-06T14:01:09.128Z,97.30
2018-10-06T14:03:37.517Z,97.60
2018-10-06T14:06:05.522Z,97.40
2018-10-06T14:08:33.705Z,97.80
2018-10-06T14:11:01.822Z,97.50
2018-10-06T14:13:29.841Z,97.50
2018-10-06T14:15:57.902Z,97.50
2018-10-06T14:18:26.098Z,97.90
2018-10-06T14:20:54.101Z,97.60
2018-10-06T14:23:22.093Z,97.80
2018-10-06T14:25:50.186Z,98.00
2018-10-06T14:28:18.290Z,98.20
2018-10-06T14:30:46.381Z,98.10
2018-10-06T14:33:14.478Z,97.90
2018-10-06T14:35:43.061Z,98.10
2018-10-06T14:38:11.057Z,97.90
2018-10-06T14:40:39.182Z,97.60
2018-10-06T14:43:07.177Z,97.40
2018-10-06T14:45:35.373Z,97.50
2018-10-06T14:48:03.479Z,97.80
2018-10-06T14:50:31.507Z,97.20
2018-10-06T14:52:59.509Z,97.60
2018-10-06T14:55:27.546Z,97.70
2018-10-06T14:57:55.649Z,97.20
2018-10-06T15:00:23.846Z,96.90
2018-10-06T15:02:51.923Z,97.20
2018-10-06T15:05:19.922Z,97.70
2018-10-06T15:07:48.242Z,97.80
2018-10-06T15:10:16.376Z,97.90
2018-10-06T15:12:44.444Z,98.30
2018-10-06T15:15:12.487Z,98.20
2018-10-06T15:17:40.601Z,98.50
2018-10-06T15:20:08.730Z,98.60
2018-10-06T15:22:36.821Z,98.70
2018-10-06T15:25:04.820Z,98.60
2018-10-06T15:27:33.118Z,99.00
2018-10-06T15:30:01.122Z,98.80
2018-10-06T15:32:29.173Z,99.30
2018-10-06T15:34:57.719Z,99.30
2018-10-06T15:37:25.823Z,99.30
2018-10-06T15:39:53.898Z,99.50
2018-10-06T15:42:21.911Z,99.60
2018-10-06T15:44:50.318Z,99.80
2018-10-06T15:47:18.369Z,99.80
2018-10-06T15:49:47.433Z,99.90
2018-10-06T15:52:15.527Z,99.90
2018-10-06T15:54:43.543Z,99.90
2018-10-06T15:57:11.634Z,99.90
2018-10-06T15:59:39.718Z,99.90
2018-10-06T16:02:07.780Z,99.90
2018-10-06T16:04:36.014Z,99.90
2018-10-06T16:07:04.064Z,99.90
2018-10-06T16:09:32.205Z,99.90
2018-10-06T16:12:00.304Z,99.90
2018-10-06T16:14:28.402Z,99.90
2018-10-06T16:16:56.409Z,99.90
2018-10-06T16:19:24.475Z,99.90
2018-10-06T16:21:52.592Z,99.90
2018-10-06T16:24:20.676Z,99.90
2018-10-06T16:26:48.678Z,99.90
2018-10-06T16:29:16.731Z,99.90
2018-10-06T16:31:44.748Z,99.90
2018-10-06T16:34:12.875Z,99.90
2018-10-06T16:36:41.270Z,99.90
2018-10-06T16:39:09.361Z,99.90
2018-10-06T16:41:37.397Z,99.90
2018-10-06T16:44:05.461Z,99.90
2018-10-06T16:46:33.553Z,99.90
2018-10-06T16:49:01.650Z,99.90
2018-10-06T16:51:29.699Z,99.90
2018-10-06T16:53:57.710Z,99.90
2018-10-06T16:56:25.719Z,99.90
2018-10-06T16:58:53.754Z,99.90
2018-10-06T17:01:21.816Z,99.90
2018-10-06T17:03:49.938Z,99.90
2018-10-06T17:06:18.167Z,99.90
2018-10-06T17:08:46.178Z,99.90
2018-10-06T17:11:14.230Z,99.90
2018-10-06T17:13:42.221Z,99.90
2018-10-06T17:16:10.317Z,99.90
2018-10-06T17:18:38.460Z,99.90
2018-10-06T17:21:06.478Z,99.90
2018-10-06T17:23:34.572Z,99.90
2018-10-06T17:26:02.706Z,99.90
2018-10-06T17:28:30.698Z,99.90
2018-10-06T17:30:58.839Z,99.90
2018-10-06T17:33:26.859Z,99.90
2018-10-06T17:35:54.880Z,99.90
2018-10-06T17:38:23.273Z,99.90
2018-10-06T17:40:51.378Z,99.90
2018-10-06T17:43:19.393Z,99.90
2018-10-06T17:45:47.443Z,99.90
2018-10-06T17:48:15.482Z,99.90
2018-10-06T17:50:43.878Z,99.90
2018-10-06T17:53:11.763Z,99.90
2018-10-06T17:55:39.806Z,99.90
2018-10-06T17:58:08.162Z,99.90
2018-10-06T18:00:36.226Z,99.90
2018-10-06T18:03:04.313Z,99.90
2018-10-06T18:05:32.317Z,99.90
2018-10-06T18:08:00.505Z,99.90
2018-10-06T18:10:28.637Z,99.90
2018-10-06T18:12:57.022Z,99.90
2018-10-06T18:15:25.047Z,99.90
2018-10-06T18:17:53.059Z,99.90
2018-10-06T18:20:21.226Z,99.90
2018-10-06T18:22:49.126Z,99.90
2018-10-06T18:25:17.330Z,99.90
2018-10-06T18:27:45.634Z,99.90
2018-10-06T18:30:13.729Z,99.90
2018-10-06T18:32:41.734Z,99.90
2018-10-06T18:35:09.782Z,99.90
2018-10-06T18:37:37.887Z,99.90
2018-10-06T18:40:05.917Z,99.90
2018-10-06T18:42:34.001Z,99.90
2018-10-06T18:45:02.102Z,99.90
2018-10-06T18:47:30.097Z,99.90
2018-10-06T18:49:58.189Z,99.90
2018-10-06T18:52:26.316Z,99.90
2018-10-06T18:54:54.401Z,99.90
2018-10-06T18:57:22.417Z,99.90
2018-10-06T18:59:50.693Z,99.90
2018-10-06T19:02:18.694Z,99.90
2018-10-06T19:04:46.749Z,99.90
2018-10-06T19:07:15.181Z,99.90
2018-10-06T19:09:43.176Z,99.90
2018-10-06T19:12:11.278Z,99.90
2018-10-06T19:14:39.369Z,99.90
2018-10-06T19:17:07.404Z,99.90
2018-10-06T19:19:35.453Z,99.90
2018-10-06T19:22:03.723Z,99.90
2018-10-06T19:24:31.757Z,99.90
2018-10-06T19:27:00.057Z,99.90
2018-10-06T19:29:28.057Z,99.90
2018-10-06T19:31:56.145Z,99.90
2018-10-06T19:34:24.262Z,99.90
2018-10-06T19:36:52.272Z,99.90
2018-10-06T19:39:20.648Z,99.90
2018-10-06T19:41:48.742Z,99.90
2018-10-06T19:44:16.803Z,99.90
2018-10-06T19:46:44.889Z,99.90
2018-10-06T19:49:13.230Z,99.90
2018-10-06T19:51:41.352Z,99.90
2018-10-06T19:54:09.402Z,99.90
2018-10-06T19:56:37.594Z,99.90
2018-10-06T19:59:05.925Z,99.90
2018-10-06T20:01:33.993Z,99.90
2018-10-06T20:04:02.106Z,99.90
2018-10-06T20:06:30.113Z,99.90
2018-10-06T20:08:58.214Z,99.90
2018-10-06T20:11:26.273Z,99.90
2018-10-06T20:13:54.463Z,99.90
2018-10-06T20:16:22.606Z,99.90
2018-10-06T20:18:50.601Z,99.90
2018-10-06T20:21:18.943Z,99.90
2018-10-06T20:23:47.007Z,99.90
2018-10-06T20:26:15.014Z,99.90
2018-10-06T20:28:43.097Z,99.90
2018-10-06T20:31:11.195Z,99.90
2018-10-06T20:33:39.323Z,99.90
2018-10-06T20:36:07.597Z,99.90
2018-10-06T20:38:35.990Z,99.90
2018-10-06T20:41:04.085Z,99.90
2018-10-06T20:43:32.128Z,99.90
2018-10-06T20:46:00.392Z,99.90
2018-10-06T20:48:28.426Z,99.90
2018-10-06T20:50:56.429Z,99.90
2018-10-06T20:53:24.633Z,99.90
2018-10-06T20:55:52.674Z,99.90
2018-10-06T20:58:20.765Z,99.90
2018-10-06T21:00:48.967Z,99.90
2018-10-06T21:03:17.029Z,99.90
2018-10-06T21:05:45.021Z,99.90
2018-10-06T21:08:13.062Z,99.90
2018-10-06T21:10:41.148Z,99.90
2018-10-06T21:13:09.188Z,99.90
2018-10-06T21:15:37.541Z,99.90
2018-10-06T21:18:05.587Z,99.90
2018-10-06T21:20:33.773Z,99.90
2018-10-06T21:23:01.771Z,99.90
2018-10-06T21:25:29.849Z,99.90
2018-10-06T21:27:57.934Z,99.90
2018-10-06T21:30:26.070Z,99.90
2018-10-06T21:32:54.389Z,99.90
2018-10-06T21:35:22.406Z,99.90
2018-10-06T21:37:50.725Z,99.90
2018-10-06T21:40:18.822Z,99.90
2018-10-06T21:42:46.823Z,99.90
2018-10-06T21:45:14.874Z,99.90
2018-10-06T21:47:42.913Z,99.90
2018-10-06T21:50:10.929Z,99.90
2018-10-06T21:52:39.002Z,99.90
2018-10-06T21:55:07.102Z,99.90
2018-10-06T21:57:35.501Z,99.90
2018-10-06T22:00:03.566Z,99.90
2018-10-06T22:02:31.579Z,99.90
2018-10-06T22:04:59.617Z,99.90
2018-10-06T22:07:27.622Z,99.90
2018-10-06T22:09:55.623Z,99.90
2018-10-06T22:12:23.694Z,99.90
2018-10-06T22:14:51.685Z,99.90
2018-10-06T22:17:19.782Z,99.90
2018-10-06T22:19:54.518Z,99.90
2018-10-06T22:22:22.574Z,99.90
2018-10-06T22:24:50.719Z,99.90
2018-10-06T22:27:18.918Z,99.90
2018-10-06T22:29:46.939Z,99.90
2018-10-06T22:32:15.513Z,99.90
2018-10-06T22:34:43.612Z,99.90
2018-10-06T22:37:11.713Z,99.90
2018-10-06T22:39:40.001Z,99.90
2018-10-06T22:42:08.016Z,99.90
2018-10-06T22:44:36.102Z,99.90
2018-10-06T22:47:04.201Z,99.90
2018-10-06T22:49:32.598Z,99.90
2018-10-06T22:52:00.701Z,99.90
2018-10-06T22:54:28.798Z,99.90
2018-10-06T22:56:57.161Z,99.90
2018-10-06T22:59:25.194Z,99.90
2018-10-06T23:01:53.193Z,99.90
2018-10-06T23:04:21.236Z,99.90
2018-10-06T23:06:49.233Z,99.90
2018-10-06T23:09:17.278Z,99.90
2018-10-06T23:11:45.369Z,99.90
2018-10-06T23:14:13.423Z,99.90
2018-10-06T23:16:41.416Z,99.90
2018-10-06T23:19:09.490Z,99.90
2018-10-06T23:21:37.554Z,99.90
2018-10-06T23:24:05.798Z,99.90
2018-10-06T23:26:33.807Z,99.90
2018-10-06T23:29:01.863Z,99.90
2018-10-06T23:31:29.914Z,99.90
2018-10-06T23:33:57.965Z,99.90
2018-10-06T23:36:25.970Z,99.90
2018-10-06T23:38:54.038Z,99.90
2018-10-06T23:41:22.090Z,99.90
2018-10-06T23:43:50.328Z,99.90
2018-10-06T23:46:18.427Z,99.90
2018-10-06T23:48:46.726Z,99.90
2018-10-06T23:51:14.730Z,99.90
2018-10-06T23:53:42.737Z,99.90
2018-10-06T23:56:10.866Z,99.90
2018-10-06T23:58:38.876Z,99.90
